Time;durP1;ratioP1;P1;durP2;ratioP2;P2;SDS_P1;SDS_P2;PMS_P1;PMS_P2;Temp;Humidity;BMP_temperature;BMP_pressure;BME280_temperature;BME280_humidity;BME280_pressure;Samples;Min_cycle;Max_cycle;Signal;HPM_P1;HPM_P2
2021/08/05 00:01:13;;;;;;;6.65;0.90;;;;;;;;;;5053001;28;20029;-52
2021/08/05 00:03:39;;;;;;;0.90;0.90;;;;;;;;;;5052845;28;20033;-52
2021/08/05 00:06:05;;;;;;;0.90;0.90;;;;;;;;;;5053273;28;20408;-52
2021/08/05 00:08:31;;;;;;;1.25;1.15;;;;;;;;;;5053662;28;20025;-51
2021/08/05 00:10:57;;;;;;;2.33;1.05;;;;;;;;;;5052509;28;20025;-52
2021/08/05 00:13:23;;;;;;;2.10;1.15;;;;;;;;;;5053466;28;20052;-52
2021/08/05 00:15:49;;;;;;;4.88;1.20;;;;;;;;;;5053429;28;20022;-52
2021/08/05 00:18:15;;;;;;;1.60;1.08;;;;;;;;;;5052685;28;20032;-52
2021/08/05 00:20:42;;;;;;;1.48;1.10;;;;;;;;;;5052300;28;20025;-51
2021/08/05 00:23:08;;;;;;;1.63;0.95;;;;;;;;;;5052856;28;20044;-52
2021/08/05 00:25:34;;;;;;;3.30;1.00;;;;;;;;;;5053212;28;20142;-52
2021/08/05 00:28:00;;;;;;;1.45;1.25;;;;;;;;;;5053259;28;20025;-52
2021/08/05 00:30:26;;;;;;;1.20;1.10;;;;;;;;;;5053282;28;20025;-52
2021/08/05 00:32:52;;;;;;;2.15;1.42;;;;;;;;;;5052212;28;20029;-52
2021/08/05 00:35:18;;;;;;;2.78;1.45;;;;;;;;;;5052456;28;20032;-52
2021/08/05 00:37:44;;;;;;;1.13;1.02;;;;;;;;;;5053191;28;20067;-52
2021/08/05 00:40:10;;;;;;;2.17;1.10;;;;;;;;;;5053075;28;20399;-52
2021/08/05 00:42:36;;;;;;;1.08;0.77;;;;;;;;;;5052240;28;20039;-52
2021/08/05 00:45:02;;;;;;;1.73;1.13;;;;;;;;;;5052508;28;20031;-52
2021/08/05 00:47:28;;;;;;;0.90;0.85;;;;;;;;;;5053362;28;20033;-52
2021/08/05 00:49:54;;;;;;;0.82;0.80;;;;;;;;;;5052333;28;20112;-52
2021/08/05 00:52:21;;;;;;;3.03;1.10;;;;;;;;;;5052265;28;20025;-52
2021/08/05 00:54:47;;;;;;;1.42;1.10;;;;;;;;;;5052838;28;20025;-52
2021/08/05 00:57:13;;;;;;;2.85;1.00;;;;;;;;;;5052492;28;20036;-52
2021/08/05 00:59:39;;;;;;;1.40;1.10;;;;;;;;;;5052767;28;20112;-52
2021/08/05 01:02:10;;;;;;;1.27;1.17;;;;;;;;;;5051438;28;20045;-51
2021/08/05 01:04:36;;;;;;;2.92;1.00;;;;;;;;;;5052905;28;20032;-52
2021/08/05 01:07:02;;;;;;;2.80;1.20;;;;;;;;;;5052517;28;20025;-52
2021/08/05 01:09:47;;;;;;;1.30;1.10;;;;;;;;;;5052808;28;20152;-52
2021/08/05 01:12:32;;;;;;;2.80;1.27;;;;;;;;;;5051473;28;20028;-52
2021/08/05 01:15:06;;;;;;;1.30;1.00;;;;;;;;;;5052797;28;20033;-52
2021/08/05 01:17:35;;;;;;;2.28;1.23;;;;;;;;;;5056880;28;20029;-52
2021/08/05 01:20:02;;;;;;;1.38;1.20;;;;;;;;;;5056589;28;20031;-52
2021/08/05 01:22:36;;;;;;;1.90;1.08;;;;;;;;;;5055233;28;20546;-52
2021/08/05 01:25:05;;;;;;;4.32;1.13;;;;;;;;;;5056182;28;20390;-52
2021/08/05 01:27:32;;;;;;;1.55;1.20;;;;;;;;;;5056723;28;20021;-52
2021/08/05 01:29:58;;;;;;;2.90;1.45;;;;;;;;;;5056599;28;20017;-52
2021/08/05 01:32:24;;;;;;;6.68;1.90;;;;;;;;;;5055390;28;20465;-52
2021/08/05 01:34:50;;;;;;;1.83;1.40;;;;;;;;;;5056408;28;20033;-52
2021/08/05 01:37:17;;;;;;;5.50;2.10;;;;;;;;;;5056664;28;20111;-52
2021/08/05 01:39:44;;;;;;;3.58;1.67;;;;;;;;;;5056427;28;20353;-52
2021/08/05 01:42:10;;;;;;;4.15;2.20;;;;;;;;;;5062559;28;20063;-52
2021/08/05 01:44:37;;;;;;;4.18;2.60;;;;;;;;;;5076556;28;20052;-52
2021/08/05 01:47:03;;;;;;;4.72;2.22;;;;;;;;;;5076416;28;20104;-51
2021/08/05 01:49:29;;;;;;;5.60;2.10;;;;;;;;;;5076175;28;20025;-52
2021/08/05 01:51:56;;;;;;;8.70;2.13;;;;;;;;;;5074414;28;20017;-52
2021/08/05 01:54:22;;;;;;;2.35;1.73;;;;;;;;;;5075936;28;20024;-52
2021/08/05 01:56:48;;;;;;;2.47;1.70;;;;;;;;;;5075955;28;20505;-52
2021/08/05 01:59:14;;;;;;;5.05;2.33;;;;;;;;;;5076153;28;20112;-52
2021/08/05 02:01:42;;;;;;;10.88;2.70;;;;;;;;;;5066999;28;20131;-52
2021/08/05 02:04:26;;;;;;;6.45;2.95;;;;;;;;;;5076029;28;20025;-52
2021/08/05 02:07:13;;;;;;;6.30;2.80;;;;;;;;;;5075433;28;20428;-52
2021/08/05 02:09:42;;;;;;;4.05;2.15;;;;;;;;;;5075855;28;20108;-52
2021/08/05 02:12:08;;;;;;;6.22;3.13;;;;;;;;;;5074478;28;20465;-52
2021/08/05 02:14:35;;;;;;;5.60;2.70;;;;;;;;;;5075469;28;20020;-52
2021/08/05 02:17:02;;;;;;;11.13;3.15;;;;;;;;;;5074488;28;20024;-52
2021/08/05 02:19:29;;;;;;;10.07;2.55;;;;;;;;;;5075243;28;20044;-52
2021/08/05 02:21:55;;;;;;;5.93;2.35;;;;;;;;;;5074273;28;20472;-52
2021/08/05 02:24:22;;;;;;;4.60;2.60;;;;;;;;;;5075161;28;20056;-52
2021/08/05 02:26:49;;;;;;;8.23;2.78;;;;;;;;;;5075384;28;20047;-52
2021/08/05 02:29:17;;;;;;;13.13;2.75;;;;;;;;;;5075333;28;20035;-52
2021/08/05 02:31:43;;;;;;;3.95;2.15;;;;;;;;;;5074475;28;20028;-52
2021/08/05 02:34:09;;;;;;;6.15;2.22;;;;;;;;;;5075030;28;20024;-52
2021/08/05 02:36:36;;;;;;;3.72;2.40;;;;;;;;;;5075387;28;20028;-52
2021/08/05 02:39:03;;;;;;;9.20;2.35;;;;;;;;;;5075106;28;20036;-51
2021/08/05 02:41:29;;;;;;;5.63;2.67;;;;;;;;;;5074728;28;20085;-52
2021/08/05 02:43:59;;;;;;;3.85;2.10;;;;;;;;;;5075312;28;20021;-52
2021/08/05 02:46:25;;;;;;;3.88;2.42;;;;;;;;;;5074932;28;20449;-52
2021/08/05 02:48:51;;;;;;;4.65;2.25;;;;;;;;;;5074585;28;20028;-52
2021/08/05 02:51:17;;;;;;;9.13;2.70;;;;;;;;;;5074036;28;20024;-52
2021/08/05 02:53:44;;;;;;;3.72;2.35;;;;;;;;;;5074660;28;20025;-52
2021/08/05 02:56:11;;;;;;;4.68;2.67;;;;;;;;;;5075065;28;20422;-52
2021/08/05 02:58:37;;;;;;;3.65;2.50;;;;;;;;;;5074833;28;20104;-52
2021/08/05 03:01:04;;;;;;;3.30;2.33;;;;;;;;;;5072924;28;20430;-52
2021/08/05 03:03:30;;;;;;;4.93;2.97;;;;;;;;;;5094035;28;20063;-52
2021/08/05 03:05:57;;;;;;;12.95;2.42;;;;;;;;;;5094941;28;20028;-52
2021/08/05 03:08:23;;;;;;;5.40;3.00;;;;;;;;;;5094791;28;20481;-52
2021/08/05 03:10:49;;;;;;;5.53;2.13;;;;;;;;;;5093332;28;20143;-52
2021/08/05 03:13:15;;;;;;;8.35;2.45;;;;;;;;;;5094989;28;20024;-52
2021/08/05 03:15:41;;;;;;;7.18;3.28;;;;;;;;;;5094349;28;20107;-52
2021/08/05 03:18:08;;;;;;;11.45;2.50;;;;;;;;;;5094806;28;20470;-52
2021/08/05 03:20:34;;;;;;;6.85;3.10;;;;;;;;;;5093780;28;20107;-52
2021/08/05 03:23:00;;;;;;;3.97;2.72;;;;;;;;;;5093633;28;20097;-52
2021/08/05 03:25:26;;;;;;;4.13;2.40;;;;;;;;;;5094751;28;20024;-52
2021/08/05 03:27:52;;;;;;;3.67;2.35;;;;;;;;;;5094500;28;20114;-52
2021/08/05 03:30:18;;;;;;;3.90;2.50;;;;;;;;;;5094499;28;20404;-52
2021/08/05 03:32:44;;;;;;;5.07;3.25;;;;;;;;;;5093757;28;20434;-52
2021/08/05 03:35:10;;;;;;;5.78;2.25;;;;;;;;;;5077494;28;20468;-52
2021/08/05 03:37:36;;;;;;;3.25;2.13;;;;;;;;;;5053605;28;20435;-52
2021/08/05 03:40:03;;;;;;;15.20;2.78;;;;;;;;;;5053725;28;20035;-52
2021/08/05 03:42:29;;;;;;;6.25;2.97;;;;;;;;;;5052813;28;20442;-52
2021/08/05 03:44:55;;;;;;;5.35;2.33;;;;;;;;;;5053832;28;20051;-52
2021/08/05 03:47:21;;;;;;;6.50;2.63;;;;;;;;;;5054250;28;20373;-52
2021/08/05 03:49:47;;;;;;;5.18;2.58;;;;;;;;;;5053790;28;20032;-52
2021/08/05 03:52:14;;;;;;;7.38;2.88;;;;;;;;;;5053149;28;20025;-53
2021/08/05 03:54:40;;;;;;;3.53;2.58;;;;;;;;;;5053806;28;20057;-52
2021/08/05 03:57:06;;;;;;;4.53;2.70;;;;;;;;;;5053958;28;20032;-52
2021/08/05 03:59:32;;;;;;;4.60;2.72;;;;;;;;;;5070378;28;20086;-52
2021/08/05 04:01:58;;;;;;;4.63;2.63;;;;;;;;;;5072773;28;20036;-52
2021/08/05 04:04:24;;;;;;;8.23;2.85;;;;;;;;;;5073683;28;20099;-52
2021/08/05 04:06:50;;;;;;;4.93;2.88;;;;;;;;;;5073528;28;20063;-52
2021/08/05 04:09:16;;;;;;;5.70;3.08;;;;;;;;;;5073433;28;20078;-52
2021/08/05 04:11:42;;;;;;;4.82;3.05;;;;;;;;;;5072450;28;20028;-52
2021/08/05 04:14:08;;;;;;;6.07;2.80;;;;;;;;;;5073261;28;20020;-52
2021/08/05 04:16:35;;;;;;;4.38;2.70;;;;;;;;;;5073403;28;20039;-52
2021/08/05 04:19:01;;;;;;;4.10;2.35;;;;;;;;;;5073547;28;20362;-52
2021/08/05 04:21:27;;;;;;;11.05;3.45;;;;;;;;;;5072087;28;20040;-52
2021/08/05 04:23:53;;;;;;;6.05;3.42;;;;;;;;;;5073103;28;20111;-52
2021/08/05 04:26:19;;;;;;;8.32;3.17;;;;;;;;;;5073453;28;20021;-52
2021/08/05 04:28:45;;;;;;;4.00;2.97;;;;;;;;;;5072755;28;20017;-52
2021/08/05 04:31:11;;;;;;;6.63;3.40;;;;;;;;;;5072264;28;20032;-52
2021/08/05 04:33:37;;;;;;;13.65;3.80;;;;;;;;;;5073321;28;20016;-52
2021/08/05 04:36:03;;;;;;;8.25;3.33;;;;;;;;;;5057432;28;20391;-52
2021/08/05 04:38:29;;;;;;;10.15;3.45;;;;;;;;;;5052911;28;20017;-52
2021/08/05 04:40:55;;;;;;;4.80;2.92;;;;;;;;;;5083741;28;20472;-51
2021/08/05 04:43:21;;;;;;;8.50;3.67;;;;;;;;;;5092446;28;20028;-52
2021/08/05 04:45:47;;;;;;;7.10;3.47;;;;;;;;;;5092804;28;20024;-52
2021/08/05 04:48:13;;;;;;;4.43;2.80;;;;;;;;;;5093218;28;20453;-52
2021/08/05 04:50:39;;;;;;;5.07;2.70;;;;;;;;;;5092428;28;20028;-52
2021/08/05 04:53:06;;;;;;;5.63;3.55;;;;;;;;;;5093224;28;20119;-52
2021/08/05 04:55:33;;;;;;;6.32;3.42;;;;;;;;;;5092516;28;20059;-52
2021/08/05 04:58:00;;;;;;;5.95;3.20;;;;;;;;;;5092869;28;20458;-52
2021/08/05 05:00:27;;;;;;;7.25;3.50;;;;;;;;;;5093278;28;20119;-52
2021/08/05 05:02:53;;;;;;;8.50;2.88;;;;;;;;;;5091907;28;20054;-52
2021/08/05 05:05:20;;;;;;;5.57;3.05;;;;;;;;;;5093206;28;20025;-52
2021/08/05 05:07:46;;;;;;;9.32;3.47;;;;;;;;;;5092851;28;20361;-52
2021/08/05 05:10:13;;;;;;;8.93;2.90;;;;;;;;;;5092860;28;20024;-52
2021/08/05 05:12:39;;;;;;;6.22;3.20;;;;;;;;;;5091926;28;20036;-52
2021/08/05 05:15:06;;;;;;;5.38;3.20;;;;;;;;;;5093177;28;20043;-52
2021/08/05 05:17:32;;;;;;;10.65;3.25;;;;;;;;;;5092381;28;20028;-51
2021/08/05 05:19:58;;;;;;;7.43;3.65;;;;;;;;;;5092636;28;20400;-51
2021/08/05 05:22:24;;;;;;;6.82;3.38;;;;;;;;;;5091526;28;20092;-51
2021/08/05 05:24:50;;;;;;;7.97;3.47;;;;;;;;;;5092502;28;20028;-51
2021/08/05 05:27:16;;;;;;;8.20;3.80;;;;;;;;;;5092521;28;20532;-51
2021/08/05 05:29:42;;;;;;;4.65;2.60;;;;;;;;;;5092898;28;20039;-51
2021/08/05 05:32:08;;;;;;;7.75;4.20;;;;;;;;;;5091662;28;20407;-51
2021/08/05 05:34:34;;;;;;;4.97;2.95;;;;;;;;;;5085724;28;20024;-51
2021/08/05 05:37:00;;;;;;;10.00;3.50;;;;;;;;;;5052596;28;20021;-51
2021/08/05 05:39:26;;;;;;;5.10;3.00;;;;;;;;;;5052232;28;20029;-52
2021/08/05 05:41:52;;;;;;;5.55;3.10;;;;;;;;;;5051412;28;20048;-51
2021/08/05 05:44:18;;;;;;;4.32;3.10;;;;;;;;;;5052261;28;20100;-51
2021/08/05 05:46:45;;;;;;;16.05;3.28;;;;;;;;;;5052342;28;20112;-51
2021/08/05 05:49:11;;;;;;;9.27;3.17;;;;;;;;;;5052529;28;20346;-51
2021/08/05 05:51:37;;;;;;;10.88;3.45;;;;;;;;;;5051172;28;20036;-51
2021/08/05 05:54:03;;;;;;;8.95;2.90;;;;;;;;;;5051528;28;20079;-51
2021/08/05 05:56:29;;;;;;;4.63;3.00;;;;;;;;;;5052250;28;20431;-51
2021/08/05 05:58:55;;;;;;;6.55;3.40;;;;;;;;;;5052522;28;20104;-51
2021/08/05 06:01:21;;;;;;;7.45;3.35;;;;;;;;;;5051795;28;20124;-51
2021/08/05 06:03:47;;;;;;;9.88;3.42;;;;;;;;;;5056025;28;20029;-51
2021/08/05 06:06:13;;;;;;;16.67;3.00;;;;;;;;;;5056216;28;20511;-51
2021/08/05 06:08:39;;;;;;;7.57;3.17;;;;;;;;;;5055754;28;20025;-51
2021/08/05 06:11:04;;;;;;;5.25;3.05;;;;;;;;;;5055086;28;20025;-51
2021/08/05 06:13:30;;;;;;;5.47;3.05;;;;;;;;;;5055556;28;20108;-52
2021/08/05 06:15:56;;;;;;;4.40;3.00;;;;;;;;;;5055608;28;20025;-51
2021/08/05 06:18:22;;;;;;;6.20;2.55;;;;;;;;;;5055677;28;20040;-51
2021/08/05 06:20:48;;;;;;;4.68;2.58;;;;;;;;;;5054498;28;20097;-51
2021/08/05 06:23:14;;;;;;;4.05;2.67;;;;;;;;;;5055390;28;20064;-52
2021/08/05 06:25:41;;;;;;;4.53;2.60;;;;;;;;;;5055924;28;20485;-51
2021/08/05 06:28:07;;;;;;;5.57;2.45;;;;;;;;;;5055069;28;20029;-51
2021/08/05 06:30:32;;;;;;;9.95;2.88;;;;;;;;;;5055201;28;20111;-51
2021/08/05 06:32:59;;;;;;;6.05;3.40;;;;;;;;;;5055031;28;20027;-51
2021/08/05 06:35:25;;;;;;;7.28;3.90;;;;;;;;;;5055535;28;20021;-51
2021/08/05 06:37:51;;;;;;;5.90;3.10;;;;;;;;;;5054921;28;20074;-51
2021/08/05 06:40:18;;;;;;;4.50;2.70;;;;;;;;;;5055177;28;20029;-51
2021/08/05 06:42:44;;;;;;;3.75;3.00;;;;;;;;;;5054260;28;20389;-51
2021/08/05 06:45:11;;;;;;;8.48;3.53;;;;;;;;;;5054785;28;20474;-51
2021/08/05 06:47:41;;;;;;;5.50;3.45;;;;;;;;;;5055076;28;20021;-52
2021/08/05 06:50:08;;;;;;;6.47;3.45;;;;;;;;;;5055215;28;20017;-51
2021/08/05 06:52:34;;;;;;;6.85;3.67;;;;;;;;;;5053779;28;20370;-51
2021/08/05 06:55:00;;;;;;;5.95;3.28;;;;;;;;;;5055088;28;20031;-51
2021/08/05 06:57:26;;;;;;;5.13;3.15;;;;;;;;;;5054957;28;20017;-52
2021/08/05 06:59:52;;;;;;;4.75;3.22;;;;;;;;;;5054517;28;20104;-51
2021/08/05 07:02:18;;;;;;;6.68;3.40;;;;;;;;;;5053913;28;20482;-51
2021/08/05 07:04:44;;;;;;;6.30;3.55;;;;;;;;;;5054815;28;20022;-51
2021/08/05 07:07:10;;;;;;;6.32;3.10;;;;;;;;;;5054168;28;20027;-51
2021/08/05 07:09:36;;;;;;;9.57;3.20;;;;;;;;;;5054808;28;20021;-51
2021/08/05 07:12:02;;;;;;;6.30;3.25;;;;;;;;;;5053857;28;20055;-52
2021/08/05 07:14:28;;;;;;;8.27;3.13;;;;;;;;;;5053458;28;20028;-51
2021/08/05 07:16:54;;;;;;;6.32;3.35;;;;;;;;;;5054765;28;20052;-51
2021/08/05 07:19:20;;;;;;;7.10;2.85;;;;;;;;;;5054479;28;20451;-51
2021/08/05 07:21:46;;;;;;;6.80;3.00;;;;;;;;;;5053047;28;20037;-51
2021/08/05 07:24:13;;;;;;;4.97;2.97;;;;;;;;;;5054204;28;20036;-51
2021/08/05 07:26:40;;;;;;;9.05;3.25;;;;;;;;;;5054721;28;20044;-51
2021/08/05 07:29:06;;;;;;;5.68;2.85;;;;;;;;;;5054152;28;20025;-51
2021/08/05 07:31:32;;;;;;;6.53;3.45;;;;;;;;;;5053482;28;20391;-51
2021/08/05 07:33:58;;;;;;;7.63;3.53;;;;;;;;;;5053697;28;20025;-52
2021/08/05 07:36:24;;;;;;;6.63;3.30;;;;;;;;;;5053847;28;20040;-51
2021/08/05 07:38:51;;;;;;;7.22;3.33;;;;;;;;;;5054324;28;20029;-51
2021/08/05 07:41:17;;;;;;;4.97;2.85;;;;;;;;;;5053112;28;20024;-51
2021/08/05 07:43:43;;;;;;;5.20;3.35;;;;;;;;;;5053854;28;20109;-51
2021/08/05 07:46:09;;;;;;;4.97;3.22;;;;;;;;;;5054122;28;20415;-51
2021/08/05 07:48:35;;;;;;;5.65;3.13;;;;;;;;;;5053550;28;20017;-51
2021/08/05 07:51:01;;;;;;;5.78;3.03;;;;;;;;;;5052827;28;20053;-51
2021/08/05 07:53:27;;;;;;;7.20;3.28;;;;;;;;;;5053800;28;20086;-51
2021/08/05 07:55:53;;;;;;;5.45;3.15;;;;;;;;;;5053393;28;20035;-52
2021/08/05 07:58:19;;;;;;;6.43;3.60;;;;;;;;;;5053686;28;20020;-52
2021/08/05 08:00:45;;;;;;;5.25;3.40;;;;;;;;;;5052679;28;20348;-51
2021/08/05 08:03:11;;;;;;;6.43;3.28;;;;;;;;;;5053221;28;20029;-51
2021/08/05 08:05:40;;;;;;;4.63;2.72;;;;;;;;;;5053714;28;20028;-51
2021/08/05 08:08:06;;;;;;;5.80;3.10;;;;;;;;;;5053277;28;20439;-51
2021/08/05 08:10:32;;;;;;;6.43;3.40;;;;;;;;;;5053163;28;20111;-51
2021/08/05 08:12:58;;;;;;;5.45;3.38;;;;;;;;;;5053418;28;20056;-52
2021/08/05 08:15:25;;;;;;;6.88;3.85;;;;;;;;;;5052990;28;20102;-51
2021/08/05 08:17:52;;;;;;;7.28;3.38;;;;;;;;;;5051395;28;20050;-51
2021/08/05 08:20:18;;;;;;;5.95;2.80;;;;;;;;;;5053199;28;20021;-51
2021/08/05 08:22:44;;;;;;;3.88;2.80;;;;;;;;;;5052182;28;20446;-51
2021/08/05 08:25:11;;;;;;;6.90;3.38;;;;;;;;;;5052699;28;20381;-52
2021/08/05 08:27:38;;;;;;;4.80;2.90;;;;;;;;;;5053615;28;20102;-52
2021/08/05 08:30:04;;;;;;;5.70;2.58;;;;;;;;;;5055590;28;20451;-51
2021/08/05 08:32:30;;;;;;;5.05;2.83;;;;;;;;;;5052319;28;20033;-52
2021/08/05 08:34:58;;;;;;;8.45;3.55;;;;;;;;;;5052825;28;20075;-51
2021/08/05 08:37:24;;;;;;;7.07;3.08;;;;;;;;;;5053463;28;20032;-51
2021/08/05 08:39:50;;;;;;;12.10;3.78;;;;;;;;;;5052918;28;20051;-51
2021/08/05 08:42:17;;;;;;;5.30;2.95;;;;;;;;;;5051653;28;20041;-52
2021/08/05 08:44:43;;;;;;;4.68;2.83;;;;;;;;;;5051237;28;20017;-51
2021/08/05 08:47:09;;;;;;;6.03;3.55;;;;;;;;;;5052705;28;20024;-52
2021/08/05 08:49:36;;;;;;;6.30;3.17;;;;;;;;;;5052427;28;20325;-51
2021/08/05 08:52:02;;;;;;;15.77;4.93;;;;;;;;;;5051924;28;20366;-51
2021/08/05 08:54:30;;;;;;;6.82;3.70;;;;;;;;;;5052709;28;20045;-51
2021/08/05 08:56:56;;;;;;;6.15;4.07;;;;;;;;;;5052878;28;20078;-51
2021/08/05 08:59:23;;;;;;;8.10;4.82;;;;;;;;;;5052413;28;20029;-50
2021/08/05 09:01:49;;;;;;;12.75;4.70;;;;;;;;;;5051314;28;20424;-50
2021/08/05 09:04:15;;;;;;;5.78;3.38;;;;;;;;;;5051406;28;20115;-50
2021/08/05 09:06:42;;;;;;;14.80;3.70;;;;;;;;;;5058998;28;20106;-51
2021/08/05 09:09:08;;;;;;;5.65;3.08;;;;;;;;;;5072784;28;20028;-50
2021/08/05 09:11:34;;;;;;;4.35;3.08;;;;;;;;;;5071668;28;20028;-50
2021/08/05 09:14:00;;;;;;;13.60;3.78;;;;;;;;;;5072225;28;20354;-50
2021/08/05 09:16:30;;;;;;;4.65;3.25;;;;;;;;;;5072694;28;20021;-50
2021/08/05 09:19:09;;;;;;;6.60;3.28;;;;;;;;;;5072284;28;20464;-50
2021/08/05 09:21:36;;;;;;;8.48;4.15;;;;;;;;;;5071751;28;20127;-50
2021/08/05 09:24:07;;;;;;;5.00;3.35;;;;;;;;;;5072245;28;20029;-50
2021/08/05 09:26:38;;;;;;;11.00;3.90;;;;;;;;;;5073003;28;20043;-50
2021/08/05 09:29:16;;;;;;;10.45;3.03;;;;;;;;;;5072699;28;20029;-51
2021/08/05 09:31:46;;;;;;;4.00;2.47;;;;;;;;;;5071205;28;20114;-50
2021/08/05 09:34:14;;;;;;;6.78;2.33;;;;;;;;;;5072162;28;20211;-50
2021/08/05 09:36:40;;;;;;;3.78;2.60;;;;;;;;;;5053682;28;20029;-50
2021/08/05 09:39:15;;;;;;;3.38;1.98;;;;;;;;;;5056196;28;20051;-50
2021/08/05 09:42:00;;;;;;;3.13;2.08;;;;;;;;;;5055371;28;20335;-50
2021/08/05 09:44:38;;;;;;;3.92;2.38;;;;;;;;;;5056452;28;20025;-50
2021/08/05 09:47:14;;;;;;;2.30;1.73;;;;;;;;;;5055905;28;20120;-51
2021/08/05 09:49:46;;;;;;;5.05;1.42;;;;;;;;;;5056150;28;20037;-50
2021/08/05 09:52:13;;;;;;;1.67;1.52;;;;;;;;;;5055306;28;20125;-50
2021/08/05 09:54:51;;;;;;;2.35;1.35;;;;;;;;;;5056033;28;20027;-50
2021/08/05 09:57:29;;;;;;;2.47;2.05;;;;;;;;;;5056007;28;20059;-50
2021/08/05 09:59:55;;;;;;;0.55;0.55;;;;;;;;;;5055819;28;20063;-50
2021/08/05 10:02:21;;;;;;;1.92;1.27;;;;;;;;;;5055082;28;20033;-50
2021/08/05 10:04:48;;;;;;;1.50;1.20;;;;;;;;;;5055631;28;20046;-51
2021/08/05 10:07:15;;;;;;;2.63;1.38;;;;;;;;;;5056056;28;20043;-52
2021/08/05 10:09:41;;;;;;;2.38;1.60;;;;;;;;;;5055619;28;20032;-52
2021/08/05 10:12:21;;;;;;;4.65;1.30;;;;;;;;;;5054741;28;20253;-52
2021/08/05 10:14:49;;;;;;;3.05;1.52;;;;;;;;;;5055987;28;20075;-52
2021/08/05 10:17:16;;;;;;;2.08;1.23;;;;;;;;;;5055654;28;20124;-52
2021/08/05 10:19:43;;;;;;;1.75;1.27;;;;;;;;;;5055819;28;20032;-52
2021/08/05 10:22:10;;;;;;;2.40;1.23;;;;;;;;;;5054531;28;20032;-52
2021/08/05 10:24:37;;;;;;;2.75;1.20;;;;;;;;;;5063221;28;20029;-52
2021/08/05 10:27:05;;;;;;;1.83;1.52;;;;;;;;;;5062714;28;20017;-52
2021/08/05 10:29:31;;;;;;;3.22;1.30;;;;;;;;;;5065697;28;20027;-52
2021/08/05 10:31:57;;;;;;;1.42;1.13;;;;;;;;;;5065849;28;20016;-52
2021/08/05 10:34:23;;;;;;;0.82;0.77;;;;;;;;;;5073228;28;20025;-52
2021/08/05 10:36:50;;;;;;;1.25;1.02;;;;;;;;;;5055139;28;20454;-52
2021/08/05 10:39:16;;;;;;;3.90;1.33;;;;;;;;;;5055246;28;20025;-52
2021/08/05 10:41:42;;;;;;;2.45;1.30;;;;;;;;;;5054224;28;20161;-52
2021/08/05 10:44:09;;;;;;;1.48;1.10;;;;;;;;;;5056517;28;20017;-52
2021/08/05 10:46:35;;;;;;;3.50;1.23;;;;;;;;;;5061026;28;20041;-52
2021/08/05 10:49:05;;;;;;;1.20;0.90;;;;;;;;;;5065590;28;20350;-52
2021/08/05 10:51:35;;;;;;;1.35;1.10;;;;;;;;;;5069568;28;20032;-52
2021/08/05 10:54:01;;;;;;;1.33;1.20;;;;;;;;;;5074439;28;20024;-52
2021/08/05 10:56:29;;;;;;;2.30;1.08;;;;;;;;;;5075029;28;20021;-52
2021/08/05 10:59:08;;;;;;;5.07;1.17;;;;;;;;;;5075145;28;20032;-52
2021/08/05 11:01:54;;;;;;;1.50;1.23;;;;;;;;;;5073715;28;20353;-53
2021/08/05 11:04:33;;;;;;;0.82;0.82;;;;;;;;;;5074738;28;20591;-52
2021/08/05 11:07:22;;;;;;;1.60;1.20;;;;;;;;;;5074874;28;20039;-52
2021/08/05 11:09:48;;;;;;;1.85;1.52;;;;;;;;;;5075077;28;20074;-52
2021/08/05 11:12:33;;;;;;;4.43;1.15;;;;;;;;;;5073636;28;20430;-52
2021/08/05 11:14:59;;;;;;;1.08;0.98;;;;;;;;;;5074282;28;20040;-52
2021/08/05 11:17:25;;;;;;;1.80;1.17;;;;;;;;;;5073759;28;20070;-51
2021/08/05 11:20:11;;;;;;;1.98;1.20;;;;;;;;;;5074421;28;20028;-52
2021/08/05 11:22:40;;;;;;;3.92;1.10;;;;;;;;;;5073524;28;20044;-52
2021/08/05 11:25:06;;;;;;;1.27;0.88;;;;;;;;;;5074302;28;20040;-52
2021/08/05 11:27:32;;;;;;;0.88;0.80;;;;;;;;;;5067257;28;20459;-52
2021/08/05 11:29:58;;;;;;;1.42;1.25;;;;;;;;;;5054410;28;20167;-52
2021/08/05 11:32:24;;;;;;;2.95;1.33;;;;;;;;;;5055908;28;20029;-52
2021/08/05 11:34:54;;;;;;;1.08;1.00;;;;;;;;;;5053518;28;20443;-52
2021/08/05 11:37:21;;;;;;;3.70;1.92;;;;;;;;;;5054015;28;20094;-52
2021/08/05 11:39:51;;;;;;;1.02;0.95;;;;;;;;;;5054460;28;20036;-52
2021/08/05 11:42:18;;;;;;;1.42;1.10;;;;;;;;;;5052811;28;20029;-52
2021/08/05 11:44:45;;;;;;;1.23;0.85;;;;;;;;;;5054200;28;20032;-52
2021/08/05 11:47:19;;;;;;;1.33;1.10;;;;;;;;;;5065849;28;20028;-52
2021/08/05 11:50:12;;;;;;;2.63;1.10;;;;;;;;;;5073544;28;20033;-52
2021/08/05 11:52:40;;;;;;;0.70;0.70;;;;;;;;;;5069456;28;20473;-52
2021/08/05 11:55:08;;;;;;;2.08;0.95;;;;;;;;;;5073746;28;20438;-52
2021/08/05 11:57:36;;;;;;;1.98;0.90;;;;;;;;;;5073691;28;20119;-52
2021/08/05 12:00:03;;;;;;;1.33;0.80;;;;;;;;;;5073101;28;20024;-52
2021/08/05 12:02:30;;;;;;;2.47;1.30;;;;;;;;;;5072202;28;20058;-52
2021/08/05 12:04:57;;;;;;;13.00;1.77;;;;;;;;;;5073624;28;20035;-52
2021/08/05 12:07:23;;;;;;;1.13;0.80;;;;;;;;;;5073337;28;20115;-52
2021/08/05 12:10:06;;;;;;;1.25;1.10;;;;;;;;;;5073618;28;20048;-52
2021/08/05 12:12:57;;;;;;;2.03;0.90;;;;;;;;;;5072777;28;20025;-52
2021/08/05 12:15:32;;;;;;;1.67;1.27;;;;;;;;;;5073764;28;20082;-52
2021/08/05 12:17:59;;;;;;;1.67;0.90;;;;;;;;;;5073473;28;20044;-52
2021/08/05 12:20:30;;;;;;;1.30;0.82;;;;;;;;;;5073018;28;20030;-52
2021/08/05 12:22:59;;;;;;;1.42;1.30;;;;;;;;;;5071972;28;20279;-52
2021/08/05 12:25:26;;;;;;;1.20;1.10;;;;;;;;;;5071718;28;20350;-52
2021/08/05 12:28:00;;;;;;;1.70;1.05;;;;;;;;;;5072446;28;20033;-52
2021/08/05 12:30:38;;;;;;;1.40;0.98;;;;;;;;;;5072718;28;20020;-52
2021/08/05 12:33:07;;;;;;;1.33;1.00;;;;;;;;;;5072073;28;20024;-52
2021/08/05 12:35:33;;;;;;;2.58;1.00;;;;;;;;;;5060663;28;20094;-52
2021/08/05 12:38:07;;;;;;;1.75;1.02;;;;;;;;;;5052009;28;20039;-52
2021/08/05 12:40:34;;;;;;;3.03;1.08;;;;;;;;;;5052264;28;20037;-52
2021/08/05 12:43:02;;;;;;;1.83;1.10;;;;;;;;;;5051988;28;20065;-53
2021/08/05 12:45:28;;;;;;;0.95;0.75;;;;;;;;;;5052027;28;20363;-52
2021/08/05 12:47:54;;;;;;;1.10;1.00;;;;;;;;;;5069826;28;20042;-52
2021/08/05 12:50:20;;;;;;;6.03;0.90;;;;;;;;;;5071495;28;20059;-52
2021/08/05 12:52:46;;;;;;;1.02;0.90;;;;;;;;;;5071333;28;20116;-52
2021/08/05 12:55:12;;;;;;;0.63;0.63;;;;;;;;;;5071952;28;20056;-52
2021/08/05 12:57:38;;;;;;;1.67;0.85;;;;;;;;;;5072072;28;20138;-52
2021/08/05 13:00:23;;;;;;;1.05;0.90;;;;;;;;;;5072128;28;20025;-52
2021/08/05 13:02:56;;;;;;;2.53;1.20;;;;;;;;;;5070803;28;20040;-53
2021/08/05 13:05:22;;;;;;;1.10;0.95;;;;;;;;;;5071850;28;20515;-52
2021/08/05 13:07:51;;;;;;;1.45;0.93;;;;;;;;;;5071584;28;20028;-52
2021/08/05 13:10:17;;;;;;;1.52;1.10;;;;;;;;;;5071815;28;20044;-52
2021/08/05 13:12:49;;;;;;;0.93;0.90;;;;;;;;;;5053846;28;20068;-52
2021/08/05 13:15:31;;;;;;;3.38;1.13;;;;;;;;;;5051427;28;20025;-52
2021/08/05 13:18:01;;;;;;;1.17;0.93;;;;;;;;;;5051788;28;20044;-52
2021/08/05 13:20:28;;;;;;;1.17;1.05;;;;;;;;;;5067474;28;20020;-52
2021/08/05 13:22:56;;;;;;;2.78;1.13;;;;;;;;;;5019518;28;1283435;-52
2021/08/05 13:25:23;;;;;;;1.48;0.80;;;;;;;;;;5061775;28;20036;-52
2021/08/05 13:28:07;;;;;;;1.15;0.93;;;;;;;;;;5060479;28;20021;-52
2021/08/05 13:30:34;;;;;;;1.35;1.00;;;;;;;;;;5061897;28;20369;-52
2021/08/05 13:32:59;;;;;;;1.60;1.10;;;;;;;;;;5060816;28;20020;-53
2021/08/05 13:35:26;;;;;;;1.92;0.82;;;;;;;;;;5060503;28;20435;-52
2021/08/05 13:38:00;;;;;;;2.42;1.05;;;;;;;;;;5061210;28;20450;-52
2021/08/05 13:40:26;;;;;;;0.88;0.88;;;;;;;;;;5051807;28;20029;-52
2021/08/05 13:42:52;;;;;;;1.85;0.80;;;;;;;;;;5051152;28;20123;-52
2021/08/05 13:45:19;;;;;;;1.55;0.90;;;;;;;;;;5067775;28;20059;-52
2021/08/05 13:47:46;;;;;;;1.48;1.13;;;;;;;;;;5071933;28;20028;-52
2021/08/05 13:50:25;;;;;;;1.23;1.13;;;;;;;;;;5072193;28;20035;-52
2021/08/05 13:52:51;;;;;;;0.90;0.70;;;;;;;;;;5070885;28;20025;-52
2021/08/05 13:55:18;;;;;;;0.95;0.75;;;;;;;;;;5072418;28;20097;-52
2021/08/05 13:57:44;;;;;;;0.95;0.88;;;;;;;;;;5072313;28;20024;-52
2021/08/05 14:00:10;;;;;;;1.10;0.80;;;;;;;;;;5072219;28;20115;-52
2021/08/05 14:02:36;;;;;;;2.13;1.08;;;;;;;;;;5071403;28;20036;-53
2021/08/05 14:05:03;;;;;;;1.10;1.00;;;;;;;;;;5071773;28;20025;-52
2021/08/05 14:07:29;;;;;;;1.23;0.93;;;;;;;;;;5058422;28;20048;-52
2021/08/05 14:09:56;;;;;;;1.90;1.00;;;;;;;;;;5067252;28;20078;-52
2021/08/05 14:12:22;;;;;;;2.58;0.90;;;;;;;;;;5054339;28;20458;-52
2021/08/05 14:14:48;;;;;;;0.70;0.70;;;;;;;;;;5051935;28;20025;-52
2021/08/05 14:17:14;;;;;;;0.93;0.77;;;;;;;;;;5049991;28;20116;-52
2021/08/05 14:19:40;;;;;;;0.85;0.70;;;;;;;;;;5051956;28;20101;-52
2021/08/05 14:22:07;;;;;;;0.80;0.80;;;;;;;;;;5050884;28;20060;-52
2021/08/05 14:24:34;;;;;;;1.67;1.10;;;;;;;;;;5055469;28;20028;-52
2021/08/05 14:27:00;;;;;;;3.20;1.00;;;;;;;;;;5055028;28;20029;-52
2021/08/05 14:29:26;;;;;;;0.90;0.90;;;;;;;;;;5068990;28;20014;-52
2021/08/05 14:31:52;;;;;;;14.77;1.40;;;;;;;;;;5074436;28;20393;-52
2021/08/05 14:34:18;;;;;;;0.80;0.80;;;;;;;;;;5074165;28;20029;-52
2021/08/05 14:36:44;;;;;;;1.48;0.95;;;;;;;;;;5055434;28;20072;-53
2021/08/05 14:39:10;;;;;;;1.40;1.17;;;;;;;;;;5055221;28;20451;-52
2021/08/05 14:41:37;;;;;;;8.07;1.42;;;;;;;;;;5053900;28;20079;-52
2021/08/05 14:44:07;;;;;;;1.70;1.10;;;;;;;;;;5055253;28;20144;-52
2021/08/05 14:46:34;;;;;;;2.92;1.30;;;;;;;;;;5055494;28;20040;-52